createdAt,value
2022-11-21T00:00:06.486Z,1068.34
2022-11-21T00:00:51.446Z,1076.34
2022-11-21T00:01:36.845Z,1063.35
2022-11-21T00:02:21.401Z,1070.34
2022-11-21T00:03:06.614Z,1070.34
2022-11-21T00:03:51.580Z,1066.35
2022-11-21T00:04:36.692Z,1069.34
2022-11-21T00:05:22.085Z,1063.35
2022-11-21T00:06:06.890Z,1069.34
2022-11-21T00:06:51.928Z,1069.05
2022-11-21T00:07:36.987Z,1063.35
2022-11-21T00:08:21.902Z,1063.35
2022-11-21T00:09:06.859Z,1068.34
2022-11-21T00:09:52.269Z,1068.34
2022-11-21T00:10:37.143Z,1063.35
2022-11-21T00:11:21.919Z,1080.05
2022-11-21T00:12:07.190Z,1068.34
2022-11-21T00:12:52.553Z,1068.34
2022-11-21T00:13:37.501Z,1066.35
2022-11-21T00:14:22.349Z,1074.34
2022-11-21T00:15:07.349Z,1067.35
2022-11-21T00:15:52.599Z,1071.34
2022-11-21T00:16:37.428Z,1073.34
2022-11-21T00:17:22.482Z,1073.34
2022-11-21T00:18:07.525Z,1068.34
2022-11-21T00:18:53.019Z,1071.34
2022-11-21T00:19:37.746Z,1059.35
2022-11-21T00:20:23.113Z,1059.35
2022-11-21T00:21:08.068Z,1072.87
2022-11-21T00:21:53.156Z,1020.41
2022-11-21T00:22:37.993Z,1067.35
2022-11-21T00:23:23.029Z,1070.34
2022-11-21T00:24:08.289Z,1062.35
2022-11-21T00:24:54.270Z,1073.05
2022-11-21T00:25:38.106Z,1061.35
2022-11-21T00:26:23.358Z,1071.34
2022-11-21T00:27:08.621Z,1068.34
2022-11-21T00:27:53.808Z,1079.34
2022-11-21T00:28:38.423Z,1068.34
2022-11-21T00:29:23.579Z,1066.35
2022-11-21T00:30:08.432Z,1074.34
2022-11-21T00:30:53.737Z,1062.35
2022-11-21T00:31:38.859Z,1066.35
2022-11-21T00:32:23.727Z,1074.34
2022-11-21T00:33:08.970Z,1074.34
2022-11-21T00:33:54.044Z,1075.34
2022-11-21T00:34:38.876Z,1070.34
2022-11-21T00:35:23.833Z,1068.34
2022-11-21T00:36:09.112Z,1068.34
2022-11-21T00:36:54.452Z,1013.14
2022-11-21T00:37:39.106Z,1038.79
2022-11-21T00:38:24.069Z,1062.35
2022-11-21T00:39:09.212Z,1022.71
2022-11-21T00:39:54.699Z,937.90
2022-11-21T00:40:39.435Z,848.26
2022-11-21T00:41:24.482Z,832.09
2022-11-21T00:42:09.545Z,948.74
2022-11-21T00:42:54.731Z,814.53
2022-11-21T00:43:39.458Z,1056.35
2022-11-21T00:44:24.972Z,1061.35
2022-11-21T00:45:09.564Z,1063.35
2022-11-21T00:45:54.937Z,1051.07
2022-11-21T00:46:39.571Z,924.79
2022-11-21T00:47:25.041Z,922.43
2022-11-21T00:48:09.889Z,845.68
2022-11-21T00:48:54.943Z,1051.36
2022-11-21T00:49:39.697Z,960.07
2022-11-21T00:50:24.962Z,843.12
2022-11-21T00:51:09.912Z,949.03
2022-11-21T00:51:55.551Z,934.31
2022-11-21T00:52:40.228Z,877.12
2022-11-21T00:53:25.282Z,990.97
2022-11-21T00:54:10.033Z,885.06
2022-11-21T00:54:55.294Z,865.65
2022-11-21T00:55:40.391Z,865.65
2022-11-21T00:56:25.517Z,1058.88
2022-11-21T00:57:10.365Z,1067.35
2022-11-21T00:57:55.316Z,1073.34
2022-11-21T00:58:40.276Z,1057.35
2022-11-21T00:59:25.542Z,1065.35
2022-11-21T01:00:10.589Z,1065.35
2022-11-21T01:00:55.604Z,1034.27
2022-11-21T01:01:40.580Z,1034.27
2022-11-21T01:02:25.457Z,1057.22
2022-11-21T01:03:10.718Z,1059.35
2022-11-21T01:03:56.075Z,1052.44
2022-11-21T01:04:40.722Z,901.49
2022-11-21T01:05:25.679Z,935.26
2022-11-21T01:06:10.528Z,956.71
2022-11-21T01:06:55.688Z,1067.35
2022-11-21T01:07:40.642Z,967.05
2022-11-21T01:08:26.009Z,1071.34
2022-11-21T01:09:11.064Z,1045.74
2022-11-21T01:09:56.216Z,952.18
2022-11-21T01:10:40.971Z,1052.35
2022-11-21T01:11:26.234Z,1052.35
2022-11-21T01:12:11.189Z,1059.35
2022-11-21T01:12:56.240Z,1070.34
2022-11-21T01:13:41.093Z,1057.35
2022-11-21T01:14:26.786Z,1061.35
2022-11-21T01:15:11.515Z,1056.35
2022-11-21T01:15:56.566Z,1064.06
2022-11-21T01:16:41.723Z,1073.34
2022-11-21T01:17:26.267Z,1072.34
2022-11-21T01:18:11.442Z,1068.34
2022-11-21T01:18:56.897Z,1063.35
2022-11-21T01:19:41.878Z,957.88
2022-11-21T01:20:26.911Z,982.90
2022-11-21T01:21:11.658Z,982.90
2022-11-21T01:21:57.024Z,967.21
2022-11-21T01:22:41.973Z,950.27
2022-11-21T01:23:26.729Z,962.67
2022-11-21T01:24:12.189Z,962.67
2022-11-21T01:24:56.935Z,1057.35
2022-11-21T01:25:41.762Z,884.43
2022-11-21T01:26:27.053Z,1051.36
2022-11-21T01:27:12.313Z,943.43
2022-11-21T01:27:57.408Z,1054.35
2022-11-21T01:28:42.319Z,905.13
2022-11-21T01:29:27.384Z,1061.35
2022-11-21T01:30:12.228Z,1061.35
2022-11-21T01:30:58.006Z,1046.94
2022-11-21T01:31:42.758Z,982.47
2022-11-21T01:32:27.809Z,1016.94
2022-11-21T01:33:12.559Z,959.59
2022-11-21T01:33:57.922Z,1040.36
2022-11-21T01:34:42.668Z,1056.35
2022-11-21T01:35:27.724Z,1063.35
2022-11-21T01:36:13.090Z,1066.79
2022-11-21T01:36:58.048Z,1056.35
2022-11-21T01:37:43.018Z,1055.35
2022-11-21T01:38:27.957Z,1036.23
2022-11-21T01:39:13.012Z,1060.98
2022-11-21T01:39:59.191Z,971.95
2022-11-21T01:40:43.223Z,1052.35
2022-11-21T01:41:28.289Z,1060.06
2022-11-21T01:42:13.132Z,1053.35
2022-11-21T01:42:58.230Z,1063.06
2022-11-21T01:43:43.450Z,1064.35
2022-11-21T01:44:28.782Z,1062.35
2022-11-21T01:45:13.672Z,1062.35
2022-11-21T01:45:58.828Z,1059.06
2022-11-21T01:46:43.576Z,1069.34
2022-11-21T01:47:28.466Z,1072.34
2022-11-21T01:48:13.789Z,1062.35
2022-11-21T01:48:58.949Z,1067.06
2022-11-21T01:49:43.902Z,1073.34
2022-11-21T01:50:28.853Z,1072.34
2022-11-21T01:51:13.705Z,1064.35
2022-11-21T01:51:59.392Z,1062.35
2022-11-21T01:52:43.821Z,1072.34
2022-11-21T01:53:29.009Z,1064.35
2022-11-21T01:54:13.938Z,1064.35
2022-11-21T01:54:59.094Z,1071.34
2022-11-21T01:55:44.355Z,1071.34
2022-11-21T01:56:29.201Z,1070.34
2022-11-21T01:57:14.162Z,1074.34
2022-11-21T01:57:59.317Z,1062.35
2022-11-21T01:58:44.273Z,1062.06
2022-11-21T01:59:29.572Z,1066.35
2022-11-21T02:00:14.485Z,1054.35
2022-11-21T02:00:59.916Z,1061.35
2022-11-21T02:01:44.615Z,1063.06
2022-11-21T02:02:29.552Z,1075.34
2022-11-21T02:03:15.025Z,1066.35
2022-11-21T02:03:59.694Z,1069.34
2022-11-21T02:04:44.630Z,1063.35
2022-11-21T02:05:29.781Z,1066.35
2022-11-21T02:06:14.632Z,1077.34
2022-11-21T02:07:00.181Z,1060.35
2022-11-21T02:07:44.952Z,1071.34
2022-11-21T02:08:30.002Z,1064.35
2022-11-21T02:09:15.063Z,1065.35
2022-11-21T02:10:00.017Z,1069.05
2022-11-21T02:10:45.275Z,1064.35
2022-11-21T02:11:30.550Z,1066.35
2022-11-21T02:12:15.464Z,1061.35
2022-11-21T02:13:00.388Z,1060.35
2022-11-21T02:13:45.406Z,1070.34
2022-11-21T02:14:30.212Z,1060.06
2022-11-21T02:15:15.414Z,1065.35
2022-11-21T02:16:00.360Z,1067.35
2022-11-21T02:16:45.423Z,1072.34
2022-11-21T02:17:30.374Z,1063.35
2022-11-21T02:18:15.433Z,1063.35
2022-11-21T02:19:00.591Z,1070.34
2022-11-21T02:19:45.647Z,1064.35
2022-11-21T02:20:30.602Z,1066.35
2022-11-21T02:21:16.074Z,1062.35
2022-11-21T02:22:00.818Z,1064.35
2022-11-21T02:22:45.564Z,1065.35
2022-11-21T02:23:30.762Z,1069.05
2022-11-21T02:24:15.574Z,1069.34
2022-11-21T02:25:00.744Z,1061.06
2022-11-21T02:25:46.100Z,1063.35
2022-11-21T02:26:31.256Z,1066.35
2022-11-21T02:27:15.815Z,1063.35
2022-11-21T02:28:01.166Z,1066.06
2022-11-21T02:28:46.016Z,1066.35
2022-11-21T02:29:31.069Z,1068.06
2022-11-21T02:30:16.331Z,1065.35
2022-11-21T02:31:01.190Z,1065.35
2022-11-21T02:31:46.241Z,1061.35
2022-11-21T02:32:31.776Z,1071.05
2022-11-21T02:33:16.457Z,1073.34
2022-11-21T02:34:01.510Z,1068.06
2022-11-21T02:34:46.388Z,1069.34
2022-11-21T02:35:31.524Z,1076.34
2022-11-21T02:36:16.477Z,1067.35
2022-11-21T02:37:02.046Z,1071.05
2022-11-21T02:37:46.899Z,1065.35
2022-11-21T02:38:31.747Z,1059.35
2022-11-21T02:39:16.803Z,1063.35
2022-11-21T02:40:02.172Z,1061.35
2022-11-21T02:40:47.225Z,1064.35
2022-11-21T02:41:32.074Z,1067.35
2022-11-21T02:42:17.237Z,1068.34
2022-11-21T02:43:01.986Z,1061.35
2022-11-21T02:43:47.453Z,1062.35
2022-11-21T02:44:32.407Z,1064.35
2022-11-21T02:45:17.564Z,1066.35
2022-11-21T02:46:02.118Z,1069.34
2022-11-21T02:46:47.287Z,1069.34
2022-11-21T02:47:32.635Z,1060.35
2022-11-21T02:48:17.688Z,1066.35
2022-11-21T02:49:02.535Z,1062.35
2022-11-21T02:49:47.606Z,1062.35
2022-11-21T02:50:32.566Z,1060.35
2022-11-21T02:51:17.817Z,1066.35
2022-11-21T02:52:02.556Z,1069.34
2022-11-21T02:52:47.619Z,1067.35
2022-11-21T02:53:32.878Z,1063.35
2022-11-21T02:54:17.730Z,1063.35
2022-11-21T02:55:02.904Z,1056.35
2022-11-21T02:55:48.050Z,1060.35
2022-11-21T02:56:33.208Z,1066.35
2022-11-21T02:57:17.851Z,1065.35
2022-11-21T02:58:05.276Z,1072.34
2022-11-21T02:58:48.270Z,1061.35
2022-11-21T02:59:33.225Z,1070.34
2022-11-21T03:00:18.182Z,1063.35
2022-11-21T03:01:03.359Z,1064.35
2022-11-21T03:01:48.397Z,1060.35
2022-11-21T03:02:33.470Z,1071.34
2022-11-21T03:03:18.206Z,1068.34
2022-11-21T03:04:03.668Z,1063.35
2022-11-21T03:04:48.622Z,1072.34
2022-11-21T03:05:33.677Z,1072.34
2022-11-21T03:06:18.734Z,1058.35
2022-11-21T03:07:03.622Z,1055.35
2022-11-21T03:07:48.948Z,1067.35
2022-11-21T03:08:33.900Z,1068.34
2022-11-21T03:09:19.163Z,1061.35
2022-11-21T03:10:03.919Z,1070.34
2022-11-21T03:10:49.073Z,1067.35
2022-11-21T03:11:34.433Z,1057.35
2022-11-21T03:12:19.240Z,1063.35
2022-11-21T03:13:04.048Z,1069.05
2022-11-21T03:13:49.308Z,1061.35
2022-11-21T03:14:34.555Z,1064.35
2022-11-21T03:15:19.674Z,1064.35
2022-11-21T03:16:04.467Z,1067.35
2022-11-21T03:16:49.525Z,1069.34
2022-11-21T03:17:34.892Z,1060.35
2022-11-21T03:18:19.735Z,1075.34
2022-11-21T03:19:04.796Z,1066.06
2022-11-21T03:19:49.853Z,1073.34
2022-11-21T03:20:34.831Z,1073.34
2022-11-21T03:21:20.066Z,1063.35
2022-11-21T03:22:05.121Z,1062.35
2022-11-21T03:22:49.939Z,1069.34
2022-11-21T03:23:35.033Z,1058.35
2022-11-21T03:24:19.988Z,1065.35
2022-11-21T03:25:05.261Z,1068.34
2022-11-21T03:25:50.299Z,1068.34
2022-11-21T03:26:35.272Z,1060.35
2022-11-21T03:27:20.212Z,1075.34
2022-11-21T03:28:05.228Z,1070.05
2022-11-21T03:28:50.461Z,1064.35
2022-11-21T03:29:35.719Z,1066.06
2022-11-21T03:30:20.652Z,1066.35
2022-11-21T03:31:05.595Z,1067.35
2022-11-21T03:31:50.854Z,1066.35
2022-11-21T03:32:36.120Z,1065.35
2022-11-21T03:33:20.959Z,1058.35
2022-11-21T03:34:05.920Z,1070.05
2022-11-21T03:34:50.977Z,1070.34
2022-11-21T03:35:36.134Z,1069.05
2022-11-21T03:36:21.304Z,1067.35
2022-11-21T03:37:06.363Z,1072.34
2022-11-21T03:37:51.311Z,1067.35
2022-11-21T03:38:36.077Z,1067.35
2022-11-21T03:39:21.418Z,1058.35
2022-11-21T03:40:06.580Z,1062.06
2022-11-21T03:40:51.534Z,1064.35
2022-11-21T03:41:36.901Z,1069.34
2022-11-21T03:42:21.850Z,1054.35
2022-11-21T03:43:06.631Z,1056.35
2022-11-21T03:43:52.603Z,1062.35
2022-11-21T03:44:36.816Z,1064.35
2022-11-21T03:45:21.768Z,1066.35
2022-11-21T03:46:07.069Z,1070.34
2022-11-21T03:46:52.342Z,1060.35
2022-11-21T03:47:37.141Z,1066.35
2022-11-21T03:48:22.098Z,1061.35
2022-11-21T03:49:07.048Z,1068.34
2022-11-21T03:49:52.669Z,1068.34
2022-11-21T03:50:37.471Z,1063.35
2022-11-21T03:51:22.325Z,1060.35
2022-11-21T03:52:08.070Z,1061.35
2022-11-21T03:52:52.717Z,1061.35
2022-11-21T03:53:38.108Z,1064.35
2022-11-21T03:54:22.655Z,1067.35
2022-11-21T03:55:07.503Z,1066.35
2022-11-21T03:55:52.690Z,1059.35
2022-11-21T03:56:37.508Z,1069.34
2022-11-21T03:57:22.884Z,1062.35
2022-11-21T03:58:07.832Z,1067.35
2022-11-21T03:58:52.999Z,1067.35
2022-11-21T03:59:37.861Z,1066.06
2022-11-21T04:00:22.845Z,1071.34
2022-11-21T04:01:08.005Z,1071.34
2022-11-21T04:01:53.268Z,1064.35
2022-11-21T04:02:38.068Z,1074.34
2022-11-21T04:03:23.059Z,1080.34
2022-11-21T04:04:08.806Z,1069.34
2022-11-21T04:04:53.264Z,1063.35
2022-11-21T04:05:38.187Z,1064.35
2022-11-21T04:06:23.254Z,1066.35
2022-11-21T04:07:08.225Z,1067.35
2022-11-21T04:07:53.515Z,1073.34
2022-11-21T04:08:38.267Z,1071.34
2022-11-21T04:09:23.473Z,1072.34
2022-11-21T04:10:08.219Z,1067.35
2022-11-21T04:10:53.888Z,1065.35
2022-11-21T04:11:38.674Z,1069.34
2022-11-21T04:12:24.211Z,1067.35
2022-11-21T04:13:08.549Z,1070.34
2022-11-21T04:13:54.222Z,1068.34
2022-11-21T04:14:38.976Z,1067.35
2022-11-21T04:15:23.714Z,1066.35
2022-11-21T04:16:08.672Z,1074.34
2022-11-21T04:16:53.929Z,1074.34
2022-11-21T04:17:39.100Z,1071.34
2022-11-21T04:18:24.162Z,1063.88
2022-11-21T04:19:09.059Z,1064.35
2022-11-21T04:19:54.366Z,1058.35
2022-11-21T04:20:39.310Z,1062.35
2022-11-21T04:21:24.274Z,1069.34
2022-11-21T04:22:09.229Z,1061.35
2022-11-21T04:22:54.483Z,1072.34
2022-11-21T04:23:39.344Z,1065.35
2022-11-21T04:24:24.405Z,1058.35
2022-11-21T04:25:09.358Z,1072.34
2022-11-21T04:25:54.813Z,1061.35
2022-11-21T04:26:39.565Z,1062.35
2022-11-21T04:27:24.766Z,1072.34
2022-11-21T04:28:09.681Z,1078.34
2022-11-21T04:28:54.832Z,1067.35
2022-11-21T04:29:39.793Z,1065.35
2022-11-21T04:30:25.154Z,1065.35
2022-11-21T04:31:11.274Z,1062.06
2022-11-21T04:31:55.062Z,1058.35
2022-11-21T04:32:39.916Z,1063.35
2022-11-21T04:33:25.021Z,1067.35
2022-11-21T04:34:10.338Z,1067.35
2022-11-21T04:34:55.188Z,1069.34
2022-11-21T04:35:40.246Z,1069.34
2022-11-21T04:36:25.231Z,1059.35
2022-11-21T04:37:11.679Z,1069.34
2022-11-21T04:37:55.426Z,1073.34
2022-11-21T04:38:40.674Z,1072.34
2022-11-21T04:39:25.421Z,1068.34
2022-11-21T04:40:10.379Z,1065.35
2022-11-21T04:40:55.879Z,1067.35
2022-11-21T04:41:40.894Z,1076.34
2022-11-21T04:42:25.648Z,1076.34
2022-11-21T04:43:10.699Z,1070.34
2022-11-21T04:43:55.965Z,1070.34
2022-11-21T04:44:40.816Z,1075.34
2022-11-21T04:45:26.022Z,1072.05
2022-11-21T04:46:11.033Z,1063.35
2022-11-21T04:46:56.827Z,1065.35
2022-11-21T04:47:40.942Z,1069.34
2022-11-21T04:48:25.997Z,1069.34
2022-11-21T04:49:11.154Z,1062.35
2022-11-21T04:49:56.308Z,1062.35
2022-11-21T04:50:41.175Z,1071.34
2022-11-21T04:51:26.120Z,1064.35
2022-11-21T04:52:11.175Z,1067.35
2022-11-21T04:52:56.383Z,1061.06
2022-11-21T04:53:43.150Z,1065.35
2022-11-21T04:54:26.728Z,1066.35
2022-11-21T04:55:11.402Z,1072.34
2022-11-21T04:55:57.072Z,1072.34
2022-11-21T04:56:41.721Z,1060.35
2022-11-21T04:57:26.674Z,1068.34
2022-11-21T04:58:11.948Z,1062.35
2022-11-21T04:58:56.988Z,1065.06
2022-11-21T04:59:41.957Z,1068.34
2022-11-21T05:00:26.930Z,1057.35
2022-11-21T05:01:12.021Z,1065.06
2022-11-21T05:01:57.325Z,1062.35
2022-11-21T05:02:41.864Z,1056.35
2022-11-21T05:03:26.919Z,1060.35
2022-11-21T05:04:11.979Z,1053.35
2022-11-21T05:04:57.649Z,1071.34
2022-11-21T05:05:42.068Z,1071.34
2022-11-21T05:06:27.459Z,1069.34
2022-11-21T05:07:12.440Z,1069.34
2022-11-21T05:07:57.472Z,1062.35
2022-11-21T05:08:42.421Z,1052.35
2022-11-21T05:09:27.575Z,1063.35
2022-11-21T05:10:12.635Z,1066.35
2022-11-21T05:10:57.700Z,1073.34
2022-11-21T05:11:42.851Z,1073.05
2022-11-21T05:12:27.611Z,1060.35
2022-11-21T05:13:12.658Z,1073.34
2022-11-21T05:13:57.506Z,1069.34
2022-11-21T05:14:42.675Z,1067.35
2022-11-21T05:15:28.031Z,1069.34
2022-11-21T05:16:13.039Z,1065.35
2022-11-21T05:16:58.138Z,1072.34
2022-11-21T05:17:42.993Z,1074.34
2022-11-21T05:18:28.576Z,1069.34
2022-11-21T05:19:13.412Z,1070.34
2022-11-21T05:19:58.234Z,1070.34
2022-11-21T05:20:43.319Z,1072.34
2022-11-21T05:21:28.994Z,1069.05
2022-11-21T05:22:13.536Z,1072.34
2022-11-21T05:22:58.351Z,1072.34
2022-11-21T05:23:43.548Z,1061.35
2022-11-21T05:24:28.557Z,1070.34
2022-11-21T05:25:13.348Z,1067.35
2022-11-21T05:25:58.916Z,1067.35
2022-11-21T05:26:43.698Z,1066.35
2022-11-21T05:27:28.827Z,1074.34
2022-11-21T05:28:13.692Z,1066.35
2022-11-21T05:28:58.941Z,1063.35
2022-11-21T05:29:44.015Z,1069.34
2022-11-21T05:30:28.975Z,1062.35
2022-11-21T05:31:14.228Z,1067.35
2022-11-21T05:31:59.369Z,1068.34
2022-11-21T05:32:44.266Z,1065.35
2022-11-21T05:33:29.287Z,1059.35
2022-11-21T05:34:14.330Z,1067.06
2022-11-21T05:34:59.491Z,1068.34
2022-11-21T05:35:44.447Z,1065.06
2022-11-21T05:36:29.503Z,1061.35
2022-11-21T05:37:14.359Z,1060.35
2022-11-21T05:37:59.920Z,1062.35
2022-11-21T05:38:44.588Z,1067.35
2022-11-21T05:39:29.630Z,1068.34
2022-11-21T05:40:14.683Z,1069.34
2022-11-21T05:40:59.664Z,1071.34
2022-11-21T05:41:44.492Z,1073.21
2022-11-21T05:42:29.655Z,1071.21
2022-11-21T05:43:15.019Z,1066.21
2022-11-21T05:43:59.962Z,1069.87
2022-11-21T05:44:44.926Z,1076.21
2022-11-21T05:45:29.884Z,1076.21
2022-11-21T05:46:15.032Z,1076.21
2022-11-21T05:46:59.984Z,1065.87
2022-11-21T05:47:45.039Z,1066.21
2022-11-21T05:48:30.204Z,1066.21
2022-11-21T05:49:15.057Z,1062.22
2022-11-21T05:50:00.339Z,1063.88
2022-11-21T05:50:45.274Z,1068.21
2022-11-21T05:51:30.535Z,1069.21
2022-11-21T05:52:15.548Z,1057.22
2022-11-21T05:53:00.746Z,1061.22
2022-11-21T05:53:45.610Z,1067.21
2022-11-21T05:54:30.862Z,1063.22
2022-11-21T05:55:15.608Z,1059.22
2022-11-21T05:56:01.176Z,1057.22
2022-11-21T05:56:45.923Z,1068.21
2022-11-21T05:57:30.979Z,1051.22
2022-11-21T05:58:16.143Z,1073.21
2022-11-21T05:59:01.001Z,1062.22
2022-11-21T05:59:45.858Z,1062.22
2022-11-21T06:00:30.998Z,1065.21
2022-11-21T06:01:16.017Z,1065.21
2022-11-21T06:02:01.120Z,1061.22
2022-11-21T06:02:46.305Z,1059.22
2022-11-21T06:03:31.230Z,1067.21
2022-11-21T06:04:16.198Z,1058.22
2022-11-21T06:05:01.136Z,1061.22
2022-11-21T06:05:46.399Z,1061.22
2022-11-21T06:06:31.463Z,1071.21
2022-11-21T06:07:16.382Z,1068.21
2022-11-21T06:08:01.259Z,1061.22
2022-11-21T06:08:46.992Z,1062.22
2022-11-21T06:09:31.573Z,1063.22
2022-11-21T06:10:16.639Z,1061.88
2022-11-21T06:11:01.685Z,1065.21
2022-11-21T06:11:46.502Z,1055.22
2022-11-21T06:12:31.655Z,1067.21
2022-11-21T06:13:17.165Z,1054.89
2022-11-21T06:14:02.013Z,1054.22
2022-11-21T06:14:46.798Z,1065.21
2022-11-21T06:15:31.925Z,1061.22
2022-11-21T06:16:16.982Z,1058.22
2022-11-21T06:17:02.980Z,1073.21
2022-11-21T06:17:47.197Z,1071.21
2022-11-21T06:18:32.148Z,1071.21
2022-11-21T06:19:17.218Z,1073.21
2022-11-21T06:20:02.347Z,1073.21
2022-11-21T06:20:47.324Z,1064.21
2022-11-21T06:21:32.245Z,1063.22
2022-11-21T06:22:17.336Z,1054.22
2022-11-21T06:23:02.204Z,1054.22
2022-11-21T06:23:47.544Z,1059.22
2022-11-21T06:24:32.603Z,1062.67
2022-11-21T06:25:17.561Z,1050.23
2022-11-21T06:26:02.866Z,1050.23
2022-11-21T06:26:47.769Z,1067.06
2022-11-21T06:27:32.828Z,1062.67
2022-11-21T06:28:17.891Z,1057.07
2022-11-21T06:29:02.736Z,1050.68
2022-11-21T06:29:47.562Z,1068.06
2022-11-21T06:30:33.057Z,1068.06
2022-11-21T06:31:18.018Z,1058.06
2022-11-21T06:32:02.981Z,1064.06
2022-11-21T06:32:47.942Z,1066.06
2022-11-21T06:33:32.974Z,1062.06
2022-11-21T06:34:18.287Z,1079.05
2022-11-21T06:35:03.293Z,1068.06
2022-11-21T06:35:48.061Z,1070.05
2022-11-21T06:36:33.201Z,1066.06
2022-11-21T06:37:18.456Z,1068.06
2022-11-21T06:38:03.512Z,1052.07
2022-11-21T06:38:48.126Z,1061.06
2022-11-21T06:39:33.461Z,1064.06
2022-11-21T06:40:18.197Z,1054.07
2022-11-21T06:41:04.148Z,1054.07
2022-11-21T06:41:48.421Z,1063.06
2022-11-21T06:42:33.583Z,1060.06
2022-11-21T06:43:18.705Z,1056.07
2022-11-21T06:44:03.862Z,1066.06
2022-11-21T06:44:48.822Z,1068.06
2022-11-21T06:45:33.772Z,1061.06
2022-11-21T06:46:18.729Z,1065.06
2022-11-21T06:47:03.991Z,1066.06
2022-11-21T06:47:49.150Z,1073.05
2022-11-21T06:48:33.996Z,1069.05
2022-11-21T06:49:18.953Z,1054.07
2022-11-21T06:50:04.316Z,1064.06
2022-11-21T06:50:49.493Z,1064.41
2022-11-21T06:51:34.328Z,1065.06
2022-11-21T06:52:19.605Z,1065.06
2022-11-21T06:53:04.335Z,1060.06
2022-11-21T06:53:49.700Z,1060.06
2022-11-21T06:54:34.955Z,1067.87
2022-11-21T06:55:19.399Z,1067.87
2022-11-21T06:56:04.562Z,1071.05
2022-11-21T06:56:49.938Z,1069.05
2022-11-21T06:57:34.883Z,1062.06
2022-11-21T06:58:19.524Z,1067.06
2022-11-21T06:59:04.693Z,1059.06
2022-11-21T06:59:50.149Z,1067.06
2022-11-21T07:00:35.105Z,1068.06
2022-11-21T07:01:20.064Z,1067.41
2022-11-21T07:02:05.111Z,1058.06
2022-11-21T07:02:50.067Z,1069.41
2022-11-21T07:03:35.231Z,1070.05
2022-11-21T07:04:19.981Z,1074.40
2022-11-21T07:05:05.510Z,1065.06
2022-11-21T07:05:50.817Z,1043.90
2022-11-21T07:06:35.571Z,1050.89
2022-11-21T07:07:20.436Z,1062.06
2022-11-21T07:08:09.142Z,1059.06
2022-11-21T07:09:04.992Z,1057.07
2022-11-21T07:09:35.470Z,1053.07
2022-11-21T07:10:20.761Z,1055.07
2022-11-21T07:11:24.264Z,1059.88
2022-11-21T07:11:50.752Z,1061.88
2022-11-21T07:12:35.519Z,1066.87
2022-11-21T07:13:20.658Z,1056.07
2022-11-21T07:14:09.115Z,1062.06
2022-11-21T07:14:50.972Z,1057.07
2022-11-21T07:15:35.820Z,1063.06
2022-11-21T07:16:20.677Z,1066.06
2022-11-21T07:17:06.269Z,1064.06
2022-11-21T07:17:50.594Z,1063.06
2022-11-21T07:18:36.161Z,1064.06
2022-11-21T07:19:21.100Z,1063.88
2022-11-21T07:20:06.166Z,1066.87
2022-11-21T07:20:51.227Z,1064.88
2022-11-21T07:21:36.582Z,1071.87
2022-11-21T07:22:21.381Z,1068.87
2022-11-21T07:23:06.507Z,1058.88
2022-11-21T07:23:51.548Z,1060.88
2022-11-21T07:24:36.505Z,1059.42
2022-11-21T07:25:21.451Z,1068.06
2022-11-21T07:26:06.718Z,1058.06
2022-11-21T07:26:51.772Z,1060.06
2022-11-21T07:27:36.625Z,1060.06
2022-11-21T07:28:21.990Z,1069.05
2022-11-21T07:29:06.867Z,1056.07
2022-11-21T07:29:51.905Z,1043.08
2022-11-21T07:30:36.954Z,1041.08
2022-11-21T07:31:21.904Z,1037.08
2022-11-21T07:32:07.072Z,1026.47
2022-11-21T07:32:52.199Z,1037.08
2022-11-21T07:33:36.984Z,1029.47
2022-11-21T07:34:22.954Z,1022.10
2022-11-21T07:35:07.394Z,1020.10
2022-11-21T07:35:52.480Z,1027.09
2022-11-21T07:36:37.203Z,1027.09
2022-11-21T07:37:22.972Z,1018.10
2022-11-21T07:38:07.538Z,1037.08
2022-11-21T07:38:52.739Z,1016.49
2022-11-21T07:39:37.528Z,1026.09
2022-11-21T07:40:22.588Z,1024.47
2022-11-21T07:41:08.048Z,1024.09
2022-11-21T07:41:52.733Z,978.14
2022-11-21T07:42:37.749Z,1056.07
2022-11-21T07:43:22.608Z,1059.06
2022-11-21T07:44:07.972Z,1063.06
2022-11-21T07:44:52.818Z,1060.06
2022-11-21T07:45:37.772Z,1060.06
2022-11-21T07:46:23.241Z,1068.06
2022-11-21T07:47:08.197Z,1065.06
2022-11-21T07:47:53.043Z,1067.06
2022-11-21T07:48:38.103Z,1069.41
2022-11-21T07:49:23.293Z,1065.06
2022-11-21T07:50:08.329Z,1063.06
2022-11-21T07:50:53.381Z,1062.06
2022-11-21T07:51:38.146Z,1062.06
2022-11-21T07:52:23.588Z,1066.06
2022-11-21T07:53:08.544Z,1066.06
2022-11-21T07:53:53.637Z,1061.06
2022-11-21T07:54:38.453Z,1057.07
2022-11-21T07:55:23.333Z,1067.06
2022-11-21T07:56:08.464Z,1073.05
2022-11-21T07:56:53.682Z,1063.06
2022-11-21T07:57:38.571Z,1067.66
2022-11-21T07:58:23.525Z,1076.05
2022-11-21T07:59:08.789Z,1069.05
2022-11-21T07:59:53.957Z,1072.05
2022-11-21T08:00:38.598Z,1066.06
2022-11-21T08:01:24.015Z,1063.06
2022-11-21T08:02:08.951Z,1076.05
2022-11-21T08:02:54.297Z,1060.06
2022-11-21T08:03:39.130Z,1067.06
2022-11-21T08:04:23.988Z,1071.05
2022-11-21T08:05:09.042Z,1059.06
2022-11-21T08:05:54.415Z,1058.06
2022-11-21T08:06:39.255Z,1061.06
2022-11-21T08:07:24.354Z,1057.07
2022-11-21T08:08:09.404Z,1079.05
2022-11-21T08:09:01.383Z,1064.06
2022-11-21T08:09:39.782Z,1068.06
2022-11-21T08:10:24.842Z,1069.05
2022-11-21T08:11:09.718Z,1055.07
2022-11-21T08:11:54.951Z,1068.06
2022-11-21T08:12:39.395Z,1068.06
2022-11-21T08:13:24.867Z,1062.06
2022-11-21T08:14:10.017Z,1062.06
2022-11-21T08:14:55.345Z,1058.06
2022-11-21T08:15:40.548Z,1064.41
2022-11-21T08:16:25.009Z,1063.06
2022-11-21T08:17:10.042Z,1063.06
2022-11-21T08:17:55.208Z,1060.88
2022-11-21T08:18:40.148Z,1060.88
2022-11-21T08:19:25.308Z,1065.87
2022-11-21T08:20:10.366Z,1065.87
2022-11-21T08:20:55.170Z,1071.87
2022-11-21T08:21:40.435Z,1065.66
2022-11-21T08:22:25.336Z,1070.21
2022-11-21T08:23:10.492Z,1064.06
2022-11-21T08:23:55.445Z,1047.47
2022-11-21T08:24:40.505Z,1047.47
2022-11-21T08:25:25.563Z,1069.46
2022-11-21T08:26:10.621Z,1055.07
2022-11-21T08:26:55.881Z,1061.35
2022-11-21T08:27:40.832Z,1060.22
2022-11-21T08:28:25.710Z,1070.05
2022-11-21T08:29:10.950Z,1059.06
2022-11-21T08:29:56.105Z,1068.06
2022-11-21T08:30:40.854Z,1062.06
2022-11-21T08:31:25.701Z,1064.06
2022-11-21T08:32:11.171Z,1076.05
2022-11-21T08:32:56.433Z,1070.05
2022-11-21T08:33:41.080Z,1068.06
2022-11-21T08:34:26.151Z,1066.87
2022-11-21T08:35:11.194Z,1067.87
2022-11-21T08:35:56.251Z,1065.87
2022-11-21T08:36:41.425Z,1064.88
2022-11-21T08:37:26.566Z,1073.87
2022-11-21T08:38:11.322Z,1071.87
2022-11-21T08:38:56.475Z,1061.88
2022-11-21T08:39:41.530Z,1065.87
2022-11-21T08:40:26.693Z,1061.88
2022-11-21T08:41:17.236Z,1062.88
2022-11-21T08:41:57.116Z,1061.88
2022-11-21T08:42:41.855Z,1058.88
2022-11-21T08:43:26.720Z,1058.88
2022-11-21T08:44:14.067Z,1059.88
2022-11-21T08:44:57.239Z,1067.41
2022-11-21T08:45:42.007Z,1063.88
2022-11-21T08:46:27.092Z,1063.88
2022-11-21T08:47:12.093Z,1062.88
2022-11-21T08:47:57.472Z,1063.88
2022-11-21T08:48:42.320Z,1064.88
2022-11-21T08:49:27.474Z,1064.88
2022-11-21T08:50:12.115Z,1053.89
2022-11-21T08:50:57.491Z,1064.88
2022-11-21T08:51:42.634Z,1054.89
2022-11-21T08:52:27.590Z,1050.89
2022-11-21T08:53:12.645Z,1049.89
2022-11-21T08:53:57.257Z,1049.89
2022-11-21T08:54:42.469Z,1066.87
2022-11-21T08:55:27.715Z,1039.90
2022-11-21T08:56:12.769Z,1054.89
2022-11-21T08:56:58.238Z,1047.89
2022-11-21T08:57:42.815Z,1019.48
2022-11-21T08:58:27.944Z,1001.94
2022-11-21T08:59:13.017Z,1027.91
2022-11-21T08:59:58.882Z,1009.93
2022-11-21T09:00:43.059Z,1059.42
2022-11-21T09:01:28.206Z,1060.88
2022-11-21T09:02:13.233Z,1065.41
2022-11-21T09:02:58.497Z,1057.88
2022-11-21T09:03:43.241Z,1070.87
2022-11-21T09:04:28.530Z,1063.88
2022-11-21T09:05:13.292Z,1056.88